createdAt,value
2022-09-21T00:01:28.159Z,9.85
2022-09-21T00:06:28.489Z,13.80
2022-09-21T00:08:59.284Z,7.07
2022-09-21T00:11:29.893Z,9.48
2022-09-21T00:14:00.966Z,11.93
2022-09-21T00:16:31.243Z,10.55
2022-09-21T00:19:00.478Z,9.40
2022-09-21T00:21:30.697Z,8.95
2022-09-21T00:23:59.986Z,12.20
2022-09-21T00:26:29.023Z,10.20
2022-09-21T00:28:58.988Z,8.60
2022-09-21T00:31:28.637Z,10.02
2022-09-21T00:36:28.370Z,10.85
2022-09-21T00:39:01.072Z,12.70
2022-09-21T00:41:32.266Z,10.13
2022-09-21T00:44:27.408Z,8.80
2022-09-21T00:46:57.580Z,12.70
2022-09-21T00:49:27.000Z,10.57
2022-09-21T00:51:55.897Z,10.15
2022-09-21T00:54:28.630Z,9.98
2022-09-21T00:57:01.431Z,9.02
2022-09-21T00:59:31.259Z,10.35
2022-09-21T01:02:00.418Z,9.52
2022-09-21T01:04:30.552Z,8.40
2022-09-21T01:07:05.744Z,10.93
2022-09-21T01:09:36.196Z,10.73
2022-09-21T01:14:50.662Z,9.68
2022-09-21T01:17:25.502Z,12.38
2022-09-21T01:20:17.493Z,12.50
2022-09-21T01:22:59.115Z,8.65
2022-09-21T01:25:36.349Z,11.23
2022-09-21T01:28:12.609Z,13.35
2022-09-21T01:30:48.840Z,17.53
2022-09-21T01:33:24.739Z,14.88
2022-09-21T01:35:58.448Z,13.75
2022-09-21T01:38:29.119Z,13.98
2022-09-21T01:43:31.942Z,13.20
2022-09-21T01:46:03.711Z,10.65
2022-09-21T01:48:35.403Z,11.95
2022-09-21T01:51:06.529Z,9.05
2022-09-21T01:53:37.800Z,10.85
2022-09-21T01:56:11.240Z,12.82
2022-09-21T01:58:44.149Z,9.55
2022-09-21T02:01:18.081Z,9.63
2022-09-21T02:03:49.426Z,12.10
2022-09-21T02:06:18.480Z,12.20
2022-09-21T02:08:48.086Z,11.40
2022-09-21T02:11:17.168Z,10.90
2022-09-21T02:13:47.147Z,10.90
2022-09-21T02:16:32.312Z,12.05
2022-09-21T02:19:12.262Z,9.57
2022-09-21T02:21:50.528Z,13.15
2022-09-21T02:24:27.099Z,15.23
2022-09-21T02:27:02.368Z,11.35
2022-09-21T02:29:36.659Z,14.43
2022-09-21T02:32:10.262Z,15.27
2022-09-21T02:34:46.729Z,16.80
2022-09-21T02:37:21.495Z,13.68
2022-09-21T02:39:56.855Z,15.00
2022-09-21T02:42:28.198Z,14.57
2022-09-21T02:45:00.957Z,15.07
2022-09-21T02:47:34.706Z,14.48
2022-09-21T02:50:06.225Z,14.02
2022-09-21T02:52:35.745Z,14.02
2022-09-21T02:55:05.428Z,17.23
2022-09-21T02:57:34.131Z,24.10
2022-09-21T03:00:03.422Z,15.63
2022-09-21T03:02:39.480Z,18.25
2022-09-21T03:05:09.188Z,18.17
2022-09-21T03:07:37.473Z,16.88
2022-09-21T03:10:08.404Z,15.63
2022-09-21T03:12:37.361Z,19.25
2022-09-21T03:15:07.164Z,14.95
2022-09-21T03:17:36.242Z,18.40
2022-09-21T03:20:08.205Z,22.20
2022-09-21T03:22:36.525Z,17.35
2022-09-21T03:25:06.338Z,16.30
2022-09-21T03:27:36.098Z,17.05
2022-09-21T03:30:06.723Z,17.90
2022-09-21T03:32:35.459Z,18.98
2022-09-21T03:35:05.001Z,15.93
2022-09-21T03:37:38.097Z,21.63
2022-09-21T03:40:11.666Z,17.98
2022-09-21T03:42:40.803Z,17.05
2022-09-21T03:45:10.873Z,15.48
2022-09-21T03:47:40.133Z,17.48
2022-09-21T03:50:10.166Z,19.73
2022-09-21T03:52:40.103Z,17.25
2022-09-21T03:55:10.530Z,16.25
2022-09-21T04:00:11.241Z,18.00
2022-09-21T04:02:40.801Z,16.10
2022-09-21T04:05:10.700Z,19.98
2022-09-21T04:07:40.838Z,18.20
2022-09-21T04:10:13.121Z,17.85
2022-09-21T04:12:43.855Z,17.60
2022-09-21T04:15:13.459Z,16.95
2022-09-21T04:17:42.370Z,15.57
2022-09-21T04:20:11.370Z,15.70
2022-09-21T04:22:43.524Z,18.30
2022-09-21T04:25:13.373Z,18.17
2022-09-21T04:27:42.537Z,17.92
2022-09-21T04:30:13.076Z,18.00
2022-09-21T04:32:41.889Z,21.88
2022-09-21T04:35:10.901Z,16.30
2022-09-21T04:37:40.560Z,20.17
2022-09-21T04:40:10.465Z,19.83
2022-09-21T04:42:39.179Z,21.55
2022-09-21T04:45:09.336Z,20.88
2022-09-21T04:47:38.053Z,19.67
2022-09-21T04:50:08.275Z,21.90
2022-09-21T04:52:36.759Z,19.02
2022-09-21T04:55:08.040Z,19.55
2022-09-21T04:57:36.952Z,21.60
2022-09-21T05:00:06.620Z,19.38
2022-09-21T05:02:35.285Z,19.57
2022-09-21T05:05:04.135Z,19.33
2022-09-21T05:07:33.670Z,17.85
2022-09-21T05:10:04.289Z,17.45
2022-09-21T05:15:03.616Z,17.20
2022-09-21T05:17:32.501Z,16.88
2022-09-21T05:20:01.707Z,17.35
2022-09-21T05:22:30.173Z,16.48
2022-09-21T05:24:58.943Z,15.73
2022-09-21T05:27:27.784Z,16.83
2022-09-21T05:29:58.515Z,18.15
2022-09-21T05:32:33.604Z,13.65
2022-09-21T05:35:08.870Z,17.52
2022-09-21T05:37:51.253Z,15.10
2022-09-21T05:40:21.014Z,13.90
2022-09-21T05:42:50.417Z,19.20
2022-09-21T05:45:23.236Z,15.10
2022-09-21T05:47:58.282Z,15.57
2022-09-21T05:50:36.218Z,13.45
2022-09-21T05:53:16.915Z,14.55
2022-09-21T05:58:20.765Z,19.48
2022-09-21T06:00:58.923Z,15.80
2022-09-21T06:03:30.100Z,20.30
2022-09-21T06:05:59.635Z,15.05
2022-09-21T06:08:28.342Z,14.07
2022-09-21T06:10:57.474Z,11.82
2022-09-21T06:13:26.678Z,13.07
2022-09-21T06:15:57.176Z,16.08
2022-09-21T06:18:25.979Z,21.95
2022-09-21T06:20:54.656Z,11.05
2022-09-21T06:23:23.362Z,15.25
2022-09-21T06:25:58.267Z,12.20
2022-09-21T06:28:28.045Z,11.57
2022-09-21T06:30:59.658Z,14.48
2022-09-21T06:33:28.340Z,9.43
2022-09-21T06:35:58.767Z,9.20
2022-09-21T06:40:56.706Z,8.55
2022-09-21T06:43:25.442Z,9.43
2022-09-21T06:45:55.480Z,7.22
2022-09-21T06:48:25.991Z,11.60
2022-09-21T06:50:59.245Z,7.32
2022-09-21T06:53:29.013Z,7.82
2022-09-21T06:56:02.540Z,6.20
2022-09-21T06:58:32.259Z,6.78
2022-09-21T07:01:06.172Z,5.50
2022-09-21T07:03:36.902Z,4.68
2022-09-21T07:06:06.457Z,4.90
2022-09-21T07:11:25.382Z,5.80
2022-09-21T07:13:54.069Z,5.53
2022-09-21T07:16:23.529Z,5.28
2022-09-21T07:18:53.786Z,5.50
2022-09-21T07:21:22.571Z,3.75
2022-09-21T07:23:51.297Z,3.97
2022-09-21T07:26:19.975Z,6.25
2022-09-21T07:28:48.372Z,4.30
2022-09-21T07:31:17.851Z,8.20
2022-09-21T07:33:47.950Z,4.65
2022-09-21T07:36:18.037Z,6.95
2022-09-21T07:38:46.795Z,2.67
2022-09-21T07:41:16.270Z,3.85
2022-09-21T07:43:44.560Z,6.57
2022-09-21T07:46:14.783Z,6.97
2022-09-21T07:51:14.179Z,5.00
2022-09-21T07:53:45.691Z,4.70
2022-09-21T07:56:16.576Z,3.58
2022-09-21T07:59:02.997Z,3.17
2022-09-21T08:01:32.325Z,4.80
2022-09-21T08:04:01.377Z,7.50
2022-09-21T08:06:33.614Z,3.53
2022-09-21T08:09:05.613Z,12.57
2022-09-21T08:11:34.825Z,3.08
2022-09-21T08:14:04.345Z,1.20
2022-09-21T08:16:33.971Z,3.90
2022-09-21T08:19:04.812Z,1.70
2022-09-21T08:21:34.575Z,4.05
2022-09-21T08:24:05.001Z,1.45
2022-09-21T08:26:33.734Z,4.07
2022-09-21T08:29:02.844Z,4.97
2022-09-21T08:31:31.600Z,5.43
2022-09-21T08:34:00.794Z,1.55
2022-09-21T08:36:29.555Z,1.73
2022-09-21T08:38:58.467Z,2.42
2022-09-21T08:41:42.796Z,2.00
2022-09-21T08:44:14.811Z,2.83
2022-09-21T08:46:44.656Z,1.75
2022-09-21T08:51:48.460Z,1.13
2022-09-21T08:54:21.887Z,7.35
2022-09-21T08:57:05.113Z,4.65
2022-09-21T08:59:35.502Z,6.25
2022-09-21T09:02:20.669Z,1.67
2022-09-21T09:04:55.320Z,1.63
2022-09-21T09:07:35.787Z,1.27
2022-09-21T09:10:09.630Z,1.60
2022-09-21T09:12:52.735Z,2.55
2022-09-21T09:15:33.904Z,3.60
2022-09-21T09:18:06.325Z,7.82
2022-09-21T09:20:38.223Z,1.85
2022-09-21T09:23:12.703Z,2.83
2022-09-21T09:25:44.137Z,3.20
2022-09-21T09:28:24.496Z,2.88
2022-09-21T09:33:25.956Z,4.68
2022-09-21T09:35:59.168Z,2.33
2022-09-21T09:38:30.882Z,2.88
2022-09-21T09:41:23.118Z,3.53
2022-09-21T09:44:04.582Z,6.03
2022-09-21T09:46:38.599Z,2.50
2022-09-21T09:49:20.987Z,4.80
2022-09-21T09:51:49.867Z,4.90
2022-09-21T09:54:20.284Z,2.45
2022-09-21T09:56:49.131Z,3.28
2022-09-21T09:59:26.648Z,2.45
2022-09-21T10:02:02.463Z,1.65
2022-09-21T10:04:31.522Z,1.38
2022-09-21T10:07:00.278Z,3.50
2022-09-21T10:09:31.115Z,7.70
2022-09-21T10:12:04.793Z,2.28
2022-09-21T10:14:38.314Z,2.05
2022-09-21T10:17:08.711Z,1.60
2022-09-21T10:19:38.295Z,2.47
2022-09-21T10:22:07.328Z,1.58
2022-09-21T10:24:37.644Z,1.52
2022-09-21T10:27:10.458Z,5.20
2022-09-21T10:29:46.328Z,0.80
2022-09-21T10:32:24.069Z,2.38
2022-09-21T10:35:20.523Z,0.55
2022-09-21T10:37:53.802Z,0.55
2022-09-21T10:40:27.523Z,2.30
2022-09-21T10:42:58.765Z,2.97
2022-09-21T10:45:30.033Z,6.80
2022-09-21T10:48:00.028Z,3.15
2022-09-21T10:50:31.017Z,5.72
2022-09-21T10:53:03.027Z,8.70
2022-09-21T10:55:33.073Z,3.70
2022-09-21T10:58:02.249Z,3.08
2022-09-21T11:00:39.090Z,2.78
2022-09-21T11:03:31.702Z,1.27
2022-09-21T11:06:06.019Z,3.50
2022-09-21T11:08:38.483Z,6.32
2022-09-21T11:11:33.567Z,2.15
2022-09-21T11:14:07.517Z,2.78
2022-09-21T11:16:42.276Z,3.28
2022-09-21T11:19:16.283Z,3.35
2022-09-21T11:21:48.636Z,2.08
2022-09-21T11:24:24.117Z,1.83
2022-09-21T11:26:55.760Z,2.00
2022-09-21T11:29:29.213Z,2.08
2022-09-21T11:32:16.375Z,0.90
2022-09-21T11:35:09.659Z,1.42
2022-09-21T11:37:52.167Z,2.15
2022-09-21T11:40:34.159Z,1.10
2022-09-21T11:43:14.779Z,2.08
2022-09-21T11:45:57.629Z,3.33
2022-09-21T11:48:45.399Z,1.48
2022-09-21T11:51:25.346Z,1.63
2022-09-21T11:54:15.332Z,1.42
2022-09-21T11:56:50.581Z,0.93
2022-09-21T11:59:32.414Z,3.58
2022-09-21T12:02:16.892Z,2.03
2022-09-21T12:04:51.024Z,6.53
2022-09-21T12:07:34.176Z,1.58
2022-09-21T12:10:12.070Z,0.75
2022-09-21T12:12:50.304Z,0.73
2022-09-21T12:15:24.618Z,4.03
2022-09-21T12:17:59.983Z,2.63
2022-09-21T12:20:36.161Z,0.60
2022-09-21T12:23:10.347Z,4.70
2022-09-21T12:25:42.186Z,4.68
2022-09-21T12:28:26.144Z,2.15
2022-09-21T12:31:05.621Z,3.08
2022-09-21T12:33:40.561Z,3.78
2022-09-21T12:36:17.402Z,10.88
2022-09-21T12:38:51.567Z,1.10
2022-09-21T12:41:24.567Z,5.18
2022-09-21T12:43:58.358Z,5.80
2022-09-21T12:46:31.646Z,3.00
2022-09-21T12:49:02.042Z,1.83
2022-09-21T12:51:35.682Z,2.35
2022-09-21T12:54:09.243Z,2.28
2022-09-21T12:56:44.402Z,6.80
2022-09-21T12:59:24.908Z,5.68
2022-09-21T13:04:38.497Z,5.40
2022-09-21T13:07:43.849Z,5.50
2022-09-21T13:10:21.948Z,10.38
2022-09-21T13:12:55.865Z,7.97
2022-09-21T13:15:27.413Z,13.75
2022-09-21T13:18:01.177Z,4.97
2022-09-21T13:20:35.767Z,5.93
2022-09-21T13:23:06.487Z,13.18
2022-09-21T13:28:19.837Z,6.40
2022-09-21T13:30:50.245Z,8.02
2022-09-21T13:36:10.702Z,4.43
2022-09-21T13:39:04.242Z,3.08
2022-09-21T13:41:58.766Z,2.30
2022-09-21T13:44:41.738Z,4.22
2022-09-21T13:47:11.469Z,3.72
2022-09-21T13:49:54.861Z,4.15
2022-09-21T13:52:31.327Z,6.20
2022-09-21T13:55:04.246Z,2.03
2022-09-21T13:57:37.620Z,1.67
2022-09-21T14:00:36.144Z,5.65
2022-09-21T14:03:08.547Z,4.43
2022-09-21T14:05:41.278Z,1.90
2022-09-21T14:08:22.072Z,2.00
2022-09-21T14:10:55.444Z,2.55
2022-09-21T14:13:28.832Z,3.60
2022-09-21T14:16:28.207Z,3.50
2022-09-21T14:18:57.895Z,4.97
2022-09-21T14:21:27.858Z,1.58
2022-09-21T14:24:36.434Z,1.77
2022-09-21T14:27:15.006Z,3.05
2022-09-21T14:29:47.229Z,3.88
2022-09-21T14:32:20.048Z,1.33
2022-09-21T14:34:50.034Z,4.25
2022-09-21T14:37:29.108Z,1.90
2022-09-21T14:39:58.714Z,1.15
2022-09-21T14:42:29.905Z,5.10
2022-09-21T14:45:00.488Z,1.42
2022-09-21T14:47:38.242Z,1.33
2022-09-21T14:50:19.729Z,1.98
2022-09-21T14:53:01.718Z,3.60
2022-09-21T14:55:36.554Z,1.17
2022-09-21T14:58:27.716Z,1.00
2022-09-21T15:00:59.749Z,2.75
2022-09-21T15:03:43.253Z,2.65
2022-09-21T15:06:48.518Z,1.77
2022-09-21T15:10:02.606Z,3.83
2022-09-21T15:12:38.918Z,1.65
2022-09-21T15:15:20.306Z,5.65
2022-09-21T15:17:59.788Z,3.05
2022-09-21T15:20:30.354Z,4.25
2022-09-21T15:23:00.531Z,3.30
2022-09-21T15:25:31.630Z,1.92
2022-09-21T15:28:01.312Z,4.63
2022-09-21T15:30:34.480Z,5.20
2022-09-21T15:33:04.311Z,7.03
2022-09-21T15:35:34.445Z,5.50
2022-09-21T15:38:03.167Z,7.00
2022-09-21T15:40:33.800Z,1.73
2022-09-21T15:43:06.643Z,3.10
2022-09-21T15:45:47.747Z,2.20
2022-09-21T15:48:16.661Z,10.95
2022-09-21T15:50:46.372Z,4.80
2022-09-21T15:53:19.815Z,1.50
2022-09-21T15:55:48.540Z,12.82
2022-09-21T15:58:31.830Z,17.15
2022-09-21T16:01:03.080Z,3.83
2022-09-21T16:03:32.217Z,2.95
2022-09-21T16:06:02.552Z,2.33
2022-09-21T16:14:18.153Z,2.50
2022-09-21T16:17:09.302Z,1.60
2022-09-21T16:19:43.164Z,3.60
2022-09-21T16:22:13.929Z,1.13
2022-09-21T16:24:46.186Z,1.02
2022-09-21T16:27:19.828Z,1.30
2022-09-21T16:29:50.391Z,1.15
2022-09-21T16:35:28.022Z,2.22
2022-09-21T16:37:57.648Z,2.47
2022-09-21T16:40:27.347Z,3.73
2022-09-21T16:42:59.016Z,1.42
2022-09-21T16:45:31.512Z,1.52
2022-09-21T16:48:05.243Z,1.50
2022-09-21T16:50:35.165Z,1.42
2022-09-21T16:53:04.822Z,5.17
2022-09-21T16:55:34.727Z,3.58
2022-09-21T16:58:03.737Z,2.00
2022-09-21T17:00:37.509Z,2.03
2022-09-21T17:03:07.759Z,7.10
2022-09-21T17:05:36.691Z,4.25
2022-09-21T17:08:06.001Z,2.60
2022-09-21T17:10:38.226Z,4.97
2022-09-21T17:13:08.888Z,6.03
2022-09-21T17:15:38.828Z,2.53
2022-09-21T17:18:10.970Z,2.65
2022-09-21T17:20:41.862Z,8.25
2022-09-21T17:23:10.955Z,4.07
2022-09-21T17:25:39.657Z,3.05
2022-09-21T17:28:15.204Z,4.47
2022-09-21T17:30:46.079Z,3.00
2022-09-21T17:33:17.939Z,3.15
2022-09-21T17:35:46.925Z,2.58
2022-09-21T17:38:15.618Z,7.75
2022-09-21T17:40:44.801Z,4.00
2022-09-21T17:43:27.386Z,3.88
2022-09-21T17:46:01.362Z,3.15
2022-09-21T17:48:34.187Z,3.25
2022-09-21T17:51:04.026Z,3.60
2022-09-21T17:53:37.287Z,3.95
2022-09-21T17:56:20.487Z,3.15
2022-09-21T17:58:53.195Z,4.97
2022-09-21T18:01:30.443Z,4.10
2022-09-21T18:04:01.242Z,5.15
2022-09-21T18:06:31.941Z,4.03
2022-09-21T18:09:01.731Z,4.80
2022-09-21T18:11:48.730Z,4.65
2022-09-21T18:14:25.088Z,7.22
2022-09-21T18:17:02.869Z,4.65
2022-09-21T18:19:44.014Z,5.97
2022-09-21T18:22:18.798Z,5.32
2022-09-21T18:24:48.699Z,4.20
2022-09-21T18:27:20.123Z,5.10
2022-09-21T18:29:49.439Z,7.55
2022-09-21T18:32:49.499Z,7.68
2022-09-21T18:35:40.163Z,10.57
2022-09-21T18:38:19.035Z,12.38
2022-09-21T18:40:56.683Z,5.03
2022-09-21T18:43:31.126Z,8.88
2022-09-21T18:46:03.335Z,5.90
2022-09-21T18:48:48.552Z,7.25
2022-09-21T18:51:24.318Z,6.95
2022-09-21T18:53:56.026Z,6.10
2022-09-21T18:56:26.424Z,5.25
2022-09-21T18:58:58.212Z,13.35
2022-09-21T19:01:29.917Z,6.80
2022-09-21T19:03:59.252Z,6.18
2022-09-21T19:06:40.935Z,6.30
2022-09-21T19:09:20.823Z,7.85
2022-09-21T19:11:55.538Z,7.85
2022-09-21T19:14:29.399Z,9.75
2022-09-21T19:17:08.138Z,8.18
2022-09-21T19:19:46.061Z,8.35
2022-09-21T19:22:20.372Z,10.30
2022-09-21T19:24:57.187Z,15.88
2022-09-21T19:27:29.845Z,10.82
2022-09-21T19:30:06.067Z,9.57
2022-09-21T19:32:40.530Z,12.25
2022-09-21T19:35:21.998Z,8.82
2022-09-21T19:37:54.561Z,10.77
2022-09-21T19:40:25.077Z,11.93
2022-09-21T19:43:21.828Z,9.50
2022-09-21T19:46:05.183Z,9.25
2022-09-21T19:48:39.636Z,13.65
2022-09-21T19:51:14.121Z,8.25
2022-09-21T19:54:02.301Z,13.20
2022-09-21T19:56:54.677Z,10.23
2022-09-21T19:59:42.172Z,10.52
2022-09-21T20:02:13.214Z,8.55
2022-09-21T20:04:50.873Z,8.60
2022-09-21T20:07:25.524Z,10.30
2022-09-21T20:10:26.946Z,7.70
2022-09-21T20:13:06.003Z,10.13
2022-09-21T20:15:37.919Z,10.73
2022-09-21T20:18:13.110Z,10.57
2022-09-21T20:20:42.868Z,11.18
2022-09-21T20:23:12.669Z,9.93
2022-09-21T20:25:51.438Z,9.85
2022-09-21T20:28:20.829Z,10.50
2022-09-21T20:30:50.422Z,13.70
2022-09-21T20:33:22.797Z,9.43
2022-09-21T20:35:53.029Z,16.20
2022-09-21T20:38:21.853Z,8.35
2022-09-21T20:40:52.158Z,12.50
2022-09-21T20:43:23.202Z,10.23
2022-09-21T20:45:51.964Z,12.07
2022-09-21T20:48:20.742Z,9.63
2022-09-21T20:50:50.575Z,12.55
2022-09-21T20:53:20.413Z,11.77
2022-09-21T20:55:56.321Z,9.23
2022-09-21T20:58:25.309Z,7.72
2022-09-21T21:00:58.614Z,8.18
2022-09-21T21:03:27.729Z,10.02
2022-09-21T21:06:08.351Z,10.18
2022-09-21T21:08:36.961Z,10.45
2022-09-21T21:11:07.202Z,13.82
2022-09-21T21:13:35.680Z,12.68
2022-09-21T21:16:10.931Z,13.35
2022-09-21T21:18:41.405Z,11.95
2022-09-21T21:21:10.628Z,11.98
2022-09-21T21:23:53.230Z,12.18
2022-09-21T21:26:38.159Z,9.80
2022-09-21T21:29:12.453Z,11.52
2022-09-21T21:31:41.877Z,12.85
2022-09-21T21:34:11.026Z,16.55
2022-09-21T21:36:40.030Z,12.98
2022-09-21T21:39:08.843Z,13.77
2022-09-21T21:41:39.039Z,12.77
2022-09-21T21:44:07.956Z,15.93
2022-09-21T21:46:36.363Z,13.50
2022-09-21T21:49:05.024Z,17.05
2022-09-21T21:51:33.872Z,15.18
2022-09-21T21:54:02.804Z,14.60
2022-09-21T21:56:31.519Z,11.00
2022-09-21T21:59:01.638Z,10.38
2022-09-21T22:01:31.282Z,16.38
2022-09-21T22:04:01.614Z,11.88
2022-09-21T22:06:32.445Z,11.95
2022-09-21T22:09:01.933Z,9.20
2022-09-21T22:11:31.072Z,11.10
2022-09-21T22:14:02.326Z,9.90
2022-09-21T22:16:32.093Z,8.93
2022-09-21T22:19:03.769Z,12.65
2022-09-21T22:21:34.401Z,11.95
2022-09-21T22:24:04.828Z,10.35
2022-09-21T22:29:07.154Z,8.90
2022-09-21T22:31:38.890Z,11.05
2022-09-21T22:34:07.886Z,7.72
2022-09-21T22:36:37.655Z,10.07
2022-09-21T22:39:07.563Z,8.77
2022-09-21T22:41:37.506Z,10.05
2022-09-21T22:44:07.779Z,9.10
2022-09-21T22:46:36.423Z,8.27
2022-09-21T22:49:05.351Z,10.75
2022-09-21T22:51:34.764Z,12.50
2022-09-21T22:54:03.551Z,9.38
2022-09-21T22:56:33.754Z,13.23
2022-09-21T22:59:04.047Z,10.18
2022-09-21T23:01:36.128Z,12.15
2022-09-21T23:04:06.752Z,9.20
2022-09-21T23:09:08.128Z,11.00
2022-09-21T23:11:38.811Z,8.73
2022-09-21T23:14:07.660Z,9.98
2022-09-21T23:16:37.564Z,11.75
2022-09-21T23:19:07.213Z,9.18
2022-09-21T23:21:36.009Z,9.77
2022-09-21T23:24:05.515Z,8.40
2022-09-21T23:26:36.554Z,8.90
2022-09-21T23:29:08.966Z,10.00
2022-09-21T23:31:43.753Z,9.23
2022-09-21T23:34:13.776Z,11.20
2022-09-21T23:36:43.165Z,11.43
2022-09-21T23:39:13.102Z,7.80
2022-09-21T23:41:41.978Z,11.63
2022-09-21T23:44:11.007Z,17.13
2022-09-21T23:46:42.161Z,8.50
2022-09-21T23:49:11.499Z,10.30
2022-09-21T23:51:40.684Z,10.38
2022-09-21T23:54:09.418Z,9.93
2022-09-21T23:56:38.178Z,8.18
2022-09-21T23:59:06.926Z,13.35
